Terminal Aerodrome Forecast
Issued by NWS Louisville, KY

Home | Current Version | Previous Version | Text Only | Print | Product List | Glossary On
Versions: 1 2 3 4 5 6 7 8 9 10 11 12 13 14 15 16 17 18 19
090
FTUS43 KLMK 011726
TAFBWG
TAF
KBWG 011726Z 0118/0218 23008KT P6SM SCT025
     FM011900 24007KT P6SM VCTS BKN035CB
      TEMPO 0120/0123 3SM -TSRA BKN035CB
     FM012300 24006KT P6SM SCT040 SCT200
     FM020700 VRB04KT P6SM BKN050
     FM021500 VRB04KT P6SM VCSH BKN040=

USA.gov is the U.S. government's official web portal to all federal, state and local government web resources and services.